Nearby METAR Reports

 

KSYN - Stanton, Minnesota, USA
Distance from station: NW 20mi, 33km
Updated: Sat, 07-Dec-2019 4:35pm CST
Clear
Clear
 Wind from S
Wind: S 14 mph , 22 km/h
Temperature: 36°F , 2°C
Wind Chill: 27°F , -3°C
Dew Point: 30°F , -1°C
Humidity: 81%
Barometer: 29.91 inHg , 1012.9 hPa
Clouds: Clear
Visibility: 10 miles , 16 km
2019/12/07 22:35 KSYN 072235Z AUTO 18012KT 10SM CLR 02/M01 A2991 RMK AO2 T00211011
KTOB - Dodge Center, Minnesota, USA
Distance from station: SSW 21mi, 34km
Updated: Sat, 07-Dec-2019 4:35pm CST
Clear
Clear
 Wind from S
Wind: S 17 mph , 28 km/h
Temperature: 34°F , 1°C
Wind Chill: 23°F , -5°C
Dew Point: 28°F , -2°C
Humidity: 81%
Barometer: 29.94 inHg , 1013.9 hPa
Clouds: Clear
Visibility: 10 miles , 16 km
2019/12/07 22:35 KTOB 072235Z AUTO 17015KT 10SM CLR 01/M02 A2994 RMK AO2
K9MN - St Mary Hospital, Minnesota, USA
Distance from station: SSE 22mi, 35km
Updated: Sat, 07-Dec-2019 4:36pm CST
Clear
Clear
 Wind from SSE
Wind: SSE 12 mph , 19 km/h, Gust: 18 mph , 30 km/h
Temperature: 37°F , 3°C
Wind Chill: 29°F , -2°C
Dew Point: 28°F , -2°C
Humidity: 70%
Barometer: 29.97 inHg , 1014.9 hPa
Clouds: Clear
Visibility: 10 miles , 16 km
2019/12/07 22:36 K9MN 072236Z AUTO 15010G16KT 10SM CLR 03/M02 A2997 RMK AO1 T00251018
 
KRGK - Red Wing, Minnesota, USA
Distance from station: NNE 22mi, 35km
Updated: Sat, 07-Dec-2019 4:36pm CST
Clear
Clear
 Wind from SE
Wind: SE 7 mph , 11 km/h
Temperature: 36°F , 2°C
Wind Chill: 30°F , -1°C
Dew Point: 28°F , -2°C
Humidity: 75%
Barometer: 29.96 inHg , 1014.6 hPa
Clouds: Clear
Visibility: 10 miles , 16 km
2019/12/07 22:36 KRGK 072236Z AUTO 14006KT 10SM CLR 02/M02 A2996 RMK AO2
KRST - Rochester, Minnesota, USA
Distance from station: SSE 29mi, 47km
Updated: Sat, 07-Dec-2019 3:54pm CST
Clear
Clear
 Wind from S
Wind: S 17 mph , 28 km/h, Gust: 25 mph , 41 km/h
Temperature: 36°F , 2°C
Wind Chill: 26°F , -3°C
Dew Point: 27°F , -3°C
Humidity: 70%
Barometer: 29.99 inHg , 1015.6 hPa
Clouds: Clear
Visibility: 10 miles , 16 km
2019/12/07 21:54 KRST 072154Z 18015G22KT 10SM CLR 02/M03 A2999 RMK AO2 SLP171 T00171028
KOWA - Owatonna, Minnesota, USA
Distance from station: WSW 31mi, 50km
Updated: Sat, 07-Dec-2019 4:34pm CST
Clear
Clear
 Wind from SSE
Wind: SSE 17 mph , 28 km/h
Temperature: 36°F , 2°C
Wind Chill: 26°F , -3°C
Dew Point: 30°F , -1°C
Humidity: 81%
Barometer: 29.92 inHg , 1013.2 hPa
Clouds: Clear
Visibility: 10 miles , 16 km
2019/12/07 22:34 KOWA 072234Z AUTO 16015KT 10SM CLR 02/M01 A2992 RMK AO2
 
KFBL - Faribault Muni, Minnesota, USA
Distance from station: W 32mi, 51km
Updated: Sat, 07-Dec-2019 4:36pm CST
Clear
Clear
 Wind from S
Wind: S 14 mph , 22 km/h, Gust: 18 mph , 30 km/h
Temperature: 36°F , 2°C
Wind Chill: 27°F , -3°C
Dew Point: 30°F , -1°C
Humidity: 81%
Barometer: 29.91 inHg , 1012.9 hPa
Clouds: Clear
Visibility: 10 miles , 16 km
2019/12/07 22:36 KFBL 072236Z AUTO 17012G16KT 10SM CLR 02/M01 A2991 RMK AO2
KSGS - South St Paul, Minnesota, USA
Distance from station: NNW 43mi, 69km
Updated: Sat, 07-Dec-2019 4:36pm CST
Clear
Clear
 Wind from SSE
Wind: SSE 7 mph , 11 km/h
Temperature: 36°F , 2°C
Wind Chill: 30°F , -1°C
Dew Point: 28°F , -2°C
Humidity: 75%
Barometer: 29.92 inHg , 1013.2 hPa
Clouds: Clear
Visibility: 10 miles , 16 km
2019/12/07 22:36 KSGS 072236Z AUTO 16006KT 10SM CLR 02/M02 A2992 RMK AO2 T00151020
KAUM - Austin Muni, Minnesota, USA
Distance from station: SSW 46mi, 73km
Updated: Sat, 07-Dec-2019 4:36pm CST
Clear
Clear
 Wind from S
Wind: S 13 mph , 20 km/h
Temperature: 39°F , 4°C
Wind Chill: 31°F , -1°C
Dew Point: 32°F , 0°C
Humidity: 75%
Barometer: 29.97 inHg , 1014.9 hPa
Clouds: Clear
Visibility: 10 miles , 16 km
2019/12/07 22:36 KAUM 072236Z AUTO 17011KT 10SM CLR 04/00 A2997 RMK AO2
 
KACQ - Waseca, Minnesota, USA
Distance from station: WSW 46mi, 75km
Updated: Sat, 07-Dec-2019 4:39pm CST
Clear
Clear
 Wind from S
Wind: S 18 mph , 30 km/h
Temperature: 37°F , 3°C
Wind Chill: 27°F , -3°C
Dew Point: 30°F , -1°C
Humidity: 75%
Barometer: 29.92 inHg , 1013.2 hPa
Clouds: Clear
Visibility: 10 miles , 16 km
2019/12/07 22:39 KACQ 072239Z AUTO 17016KT 10SM CLR 03/M01 A2992 RMK AO2
KSTP - St. Paul, Minnesota, USA
Distance from station: NNW 47mi, 76km
Updated: Sat, 07-Dec-2019 3:53pm CST
Clear
Clear
 Wind from SSE
Wind: SSE 12 mph , 19 km/h
Temperature: 34°F , 1°C
Wind Chill: 25°F , -4°C
Dew Point: 27°F , -3°C
Humidity: 75%
Barometer: 29.96 inHg , 1014.6 hPa
Clouds: Clear
Visibility: 10 miles , 16 km
2019/12/07 21:53 KSTP 072153Z 16010KT 10SM CLR 01/M03 A2996 RMK AO2 SLP153 T00111033
KMSP - Minneapolis, Minnesota, USA
Distance from station: NW 49mi, 78km
Updated: Sat, 07-Dec-2019 3:53pm CST
Overcast
Overcast
 Wind from SSE
Wind: SSE 9 mph , 15 km/h
Temperature: 34°F , 1°C
Wind Chill: 27°F , -3°C
Dew Point: 27°F , -3°C
Humidity: 75%
Barometer: 29.94 inHg , 1013.9 hPa
Clouds: Overcast
Visibility: 10 miles , 16 km
Cloud details: Mostly cloudy 16000 ft
Mostly cloudy 20000 ft
Overcast 25000 ft
2019/12/07 21:53 KMSP 072153Z 16008KT 10SM BKN160 BKN200 OVC250 01/M03 A2994 RMK AO2 SLP149 T00111033